createdAt,value
2023-02-21T00:00:02.860Z,94.61
2023-02-21T00:01:02.870Z,93.53
2023-02-21T00:02:02.936Z,94.48
2023-02-21T00:03:02.956Z,96.52
2023-02-21T00:04:02.995Z,94.65
2023-02-21T00:05:03.132Z,95.05
2023-02-21T00:06:03.182Z,93.18
2023-02-21T00:07:03.187Z,91.98
2023-02-21T00:08:03.234Z,93.03
2023-02-21T00:09:03.286Z,92.87
2023-02-21T00:10:03.372Z,91.34
2023-02-21T00:11:03.466Z,94.26
2023-02-21T00:12:03.500Z,95.09
2023-02-21T00:13:03.596Z,94.41
2023-02-21T00:14:03.619Z,93.94
2023-02-21T00:15:03.705Z,92.24
2023-02-21T00:16:03.765Z,94.32
2023-02-21T00:17:03.806Z,93.89
2023-02-21T00:18:03.862Z,93.71
2023-02-21T00:19:03.955Z,94.88
2023-02-21T00:20:04.037Z,95.35
2023-02-21T00:21:04.064Z,96.40
2023-02-21T00:22:04.115Z,99.17
2023-02-21T00:23:04.183Z,98.71
2023-02-21T00:24:04.223Z,100.79
2023-02-21T00:25:04.318Z,99.84
2023-02-21T00:26:04.380Z,97.58
2023-02-21T00:27:04.472Z,98.60
2023-02-21T00:28:04.505Z,97.68
2023-02-21T00:29:04.575Z,98.13
2023-02-21T00:30:04.674Z,99.39
2023-02-21T00:31:04.703Z,99.54
2023-02-21T00:32:04.747Z,100.09
2023-02-21T00:33:07.132Z,103.19
2023-02-21T00:34:04.879Z,106.34
2023-02-21T00:35:04.965Z,108.80
2023-02-21T00:36:04.994Z,107.48
2023-02-21T00:38:05.126Z,112.03
2023-02-21T00:39:05.227Z,114.13
2023-02-21T00:40:05.238Z,121.59
2023-02-21T00:41:05.329Z,131.26
2023-02-21T00:42:05.371Z,132.27
2023-02-21T00:43:05.442Z,134.10
2023-02-21T00:44:05.501Z,134.34
2023-02-21T00:45:05.589Z,138.31
2023-02-21T00:46:05.654Z,147.80
2023-02-21T00:47:05.701Z,149.86
2023-02-21T00:48:05.746Z,151.28
2023-02-21T00:49:05.813Z,152.46
2023-02-21T00:50:05.887Z,155.50
2023-02-21T00:51:05.928Z,156.07
2023-02-21T00:52:05.988Z,157.24
2023-02-21T00:53:06.046Z,157.97
2023-02-21T00:54:06.135Z,159.71
2023-02-21T00:55:06.205Z,157.52
2023-02-21T00:56:06.228Z,160.94
2023-02-21T00:57:06.293Z,161.27
2023-02-21T00:58:06.372Z,162.63
2023-02-21T00:59:06.386Z,161.66
2023-02-21T01:00:06.474Z,162.13
2023-02-21T01:01:06.591Z,161.72
2023-02-21T01:02:06.600Z,162.00
2023-02-21T01:03:06.652Z,164.49
2023-02-21T01:04:06.748Z,165.74
2023-02-21T01:05:06.753Z,165.34
2023-02-21T01:06:06.855Z,162.61
2023-02-21T01:07:06.894Z,162.77
2023-02-21T01:08:06.944Z,164.44
2023-02-21T01:09:06.997Z,164.60
2023-02-21T01:10:07.044Z,164.70
2023-02-21T01:32:08.453Z,160.88
2023-02-21T01:34:08.498Z,159.18
2023-02-21T01:35:08.565Z,158.93
2023-02-21T01:36:08.646Z,157.70
2023-02-21T01:37:08.691Z,158.42
2023-02-21T01:38:08.730Z,157.72
2023-02-21T01:39:08.800Z,158.33
2023-02-21T01:40:08.849Z,157.09
2023-02-21T01:41:08.950Z,156.29
2023-02-21T01:42:08.975Z,157.06
2023-02-21T01:43:09.024Z,155.04
2023-02-21T01:44:09.091Z,154.55
2023-02-21T01:45:09.130Z,155.89
2023-02-21T01:46:09.224Z,155.73
2023-02-21T01:47:09.241Z,155.48
2023-02-21T01:48:09.310Z,153.79
2023-02-21T01:49:09.362Z,154.15
2023-02-21T01:50:09.429Z,153.80
2023-02-21T01:51:09.508Z,151.75
2023-02-21T01:52:09.519Z,152.30
2023-02-21T01:53:09.605Z,154.62
2023-02-21T01:54:09.661Z,153.10
2023-02-21T01:55:09.732Z,151.67
2023-02-21T02:00:09.991Z,146.11
2023-02-21T02:14:10.739Z,130.46
2023-02-21T02:31:11.769Z,117.71
2023-02-21T02:32:11.798Z,117.44
2023-02-21T02:33:11.835Z,116.45
2023-02-21T02:34:11.852Z,112.43
2023-02-21T02:35:11.923Z,109.46
2023-02-21T02:36:11.987Z,108.79
2023-02-21T02:37:12.051Z,107.14
2023-02-21T02:38:12.136Z,104.57
2023-02-21T02:39:12.164Z,101.65
2023-02-21T02:40:12.263Z,101.15
2023-02-21T02:41:12.464Z,101.32
2023-02-21T02:42:12.387Z,101.84
2023-02-21T02:43:12.415Z,100.59
2023-02-21T02:44:12.486Z,101.72
2023-02-21T02:45:12.550Z,103.28
2023-02-21T02:46:12.571Z,102.60
2023-02-21T02:47:12.624Z,105.11
2023-02-21T02:48:12.673Z,104.43
2023-02-21T02:49:12.742Z,103.56
2023-02-21T02:50:12.827Z,105.19
2023-02-21T02:51:13.306Z,106.10
2023-02-21T02:52:12.914Z,105.23
2023-02-21T02:53:12.974Z,106.63
2023-02-21T02:54:13.038Z,105.23
2023-02-21T02:55:13.067Z,106.14
2023-02-21T02:56:13.143Z,105.67
2023-02-21T02:57:13.492Z,106.97
2023-02-21T02:58:13.241Z,103.22
2023-02-21T02:59:13.330Z,104.92
2023-02-21T03:00:13.380Z,101.84
2023-02-21T03:01:13.667Z,102.56
2023-02-21T03:02:13.500Z,102.43
2023-02-21T03:03:13.572Z,97.21
2023-02-21T03:04:13.607Z,98.24
2023-02-21T03:05:13.645Z,95.60
2023-02-21T03:06:13.702Z,95.79
2023-02-21T03:07:13.760Z,92.78
2023-02-21T03:08:13.838Z,95.39
2023-02-21T03:09:13.862Z,96.30
2023-02-21T03:10:13.930Z,96.73
2023-02-21T03:11:14.328Z,95.64
2023-02-21T03:12:14.028Z,95.15
2023-02-21T03:13:15.044Z,98.59
2023-02-21T03:14:14.160Z,99.53
2023-02-21T03:15:14.226Z,98.86
2023-02-21T03:16:14.307Z,98.47
2023-02-21T03:17:14.343Z,97.00
2023-02-21T03:18:14.402Z,100.11
2023-02-21T03:19:14.470Z,99.86
2023-02-21T03:20:14.499Z,100.56
2023-02-21T03:21:14.827Z,104.73
2023-02-21T03:22:14.629Z,106.44
2023-02-21T03:23:14.669Z,106.06
2023-02-21T03:24:14.741Z,107.48
2023-02-21T03:25:14.832Z,109.88
2023-02-21T03:26:14.865Z,109.95
2023-02-21T03:27:14.897Z,111.51
2023-02-21T03:28:14.978Z,114.44
2023-02-21T03:29:15.034Z,113.05
2023-02-21T03:30:15.104Z,112.77
2023-02-21T03:31:15.472Z,113.09
2023-02-21T03:32:15.231Z,111.44
2023-02-21T03:33:15.258Z,113.74
2023-02-21T03:34:15.316Z,112.83
2023-02-21T03:35:15.372Z,117.06
2023-02-21T03:36:15.452Z,113.75
2023-02-21T03:37:15.485Z,115.96
2023-02-21T03:38:15.529Z,113.56
2023-02-21T03:39:15.577Z,111.89
2023-02-21T03:40:15.635Z,111.96
2023-02-21T03:41:16.139Z,115.70
2023-02-21T03:42:15.755Z,114.11
2023-02-21T03:43:15.820Z,115.38
2023-02-21T03:44:15.863Z,114.85
2023-02-21T03:45:15.894Z,114.05
2023-02-21T03:46:15.955Z,113.27
2023-02-21T03:47:16.021Z,111.13
2023-02-21T03:48:26.068Z,114.07
2023-02-21T03:49:17.076Z,114.17
2023-02-21T03:50:16.044Z,114.54
2023-02-21T03:51:16.382Z,112.27
2023-02-21T03:52:16.064Z,115.42
2023-02-21T03:53:16.056Z,110.51
2023-02-21T03:54:16.036Z,114.98
2023-02-21T03:55:16.031Z,112.42
2023-02-21T03:56:15.998Z,115.66
2023-02-21T03:57:16.059Z,115.18
2023-02-21T03:58:16.121Z,114.84
2023-02-21T03:59:16.164Z,115.42
2023-02-21T04:00:16.233Z,113.73
2023-02-21T04:01:16.668Z,115.20
2023-02-21T04:02:16.408Z,113.59
2023-02-21T04:03:16.396Z,114.85
2023-02-21T04:04:16.488Z,114.25
2023-02-21T04:05:16.561Z,113.72
2023-02-21T04:06:16.647Z,114.02
2023-02-21T04:07:16.656Z,111.77
2023-02-21T04:08:16.721Z,112.56
2023-02-21T04:09:16.798Z,112.02
2023-02-21T04:10:16.844Z,111.48
2023-02-21T04:11:16.985Z,113.82
2023-02-21T04:12:16.988Z,112.41
2023-02-21T04:13:17.034Z,110.17
2023-02-21T04:14:17.105Z,111.68
2023-02-21T04:15:17.158Z,109.70
2023-02-21T04:16:17.274Z,108.65
2023-02-21T04:17:17.271Z,108.72
2023-02-21T04:18:17.362Z,110.50
2023-02-21T04:19:17.401Z,109.53
2023-02-21T04:20:17.489Z,110.06
2023-02-21T04:21:17.550Z,111.17
2023-02-21T04:22:17.609Z,109.66
2023-02-21T04:23:17.673Z,108.88
2023-02-21T04:24:17.705Z,107.89
2023-02-21T04:25:17.783Z,108.56
2023-02-21T04:26:17.867Z,110.02
2023-02-21T04:27:17.925Z,110.36
2023-02-21T04:28:17.972Z,106.92
2023-02-21T04:29:18.030Z,107.26
2023-02-21T04:30:18.119Z,108.92
2023-02-21T04:31:18.368Z,110.11
2023-02-21T04:32:18.326Z,109.72
2023-02-21T04:33:18.253Z,106.93
2023-02-21T04:34:18.313Z,107.08
2023-02-21T04:35:18.416Z,107.70
2023-02-21T04:36:18.518Z,105.99
2023-02-21T04:37:18.534Z,106.15
2023-02-21T04:38:18.560Z,107.87
2023-02-21T04:39:18.651Z,106.99
2023-02-21T04:40:18.684Z,107.47
2023-02-21T04:41:18.749Z,106.58
2023-02-21T04:42:18.831Z,105.82
2023-02-21T04:43:18.873Z,106.93
2023-02-21T04:44:18.944Z,107.07
2023-02-21T04:45:19.009Z,106.99
2023-02-21T04:46:19.060Z,107.85
2023-02-21T04:47:19.122Z,107.92
2023-02-21T04:48:19.177Z,109.61
2023-02-21T04:49:19.253Z,108.96
2023-02-21T04:50:19.307Z,109.38
2023-02-21T04:51:19.820Z,107.69
2023-02-21T04:52:19.394Z,109.95
2023-02-21T04:53:19.471Z,108.32
2023-02-21T04:54:19.534Z,109.76
2023-02-21T04:55:19.607Z,108.00
2023-02-21T04:56:19.670Z,109.27
2023-02-21T04:57:19.715Z,108.83
2023-02-21T04:58:19.757Z,109.47
2023-02-21T04:59:19.817Z,112.37
2023-02-21T05:00:19.881Z,112.92
2023-02-21T05:01:19.972Z,112.78
2023-02-21T05:02:20.030Z,114.88
2023-02-21T05:03:20.046Z,111.36
2023-02-21T05:04:20.175Z,111.50
2023-02-21T05:05:20.220Z,112.62
2023-02-21T05:06:20.244Z,113.34
2023-02-21T05:07:20.297Z,113.02
2023-02-21T05:08:20.344Z,115.88
2023-02-21T05:09:20.372Z,114.54
2023-02-21T05:24:21.129Z,109.25
2023-02-21T05:43:22.047Z,107.12
2023-02-21T05:44:22.132Z,107.15
2023-02-21T05:45:22.114Z,105.74
2023-02-21T05:46:22.255Z,104.34
2023-02-21T05:47:22.238Z,104.56
2023-02-21T05:48:22.278Z,104.62
2023-02-21T05:49:22.325Z,106.05
2023-02-21T05:50:22.362Z,106.83
2023-02-21T05:51:22.414Z,104.64
2023-02-21T05:52:22.462Z,105.90
2023-02-21T05:53:22.482Z,106.07
2023-02-21T05:54:22.578Z,107.97
2023-02-21T05:55:22.616Z,111.36
2023-02-21T05:56:22.666Z,113.23
2023-02-21T05:57:22.705Z,113.94
2023-02-21T06:02:42.116Z,25.00
2023-02-21T06:03:42.199Z,25.00
2023-02-21T06:04:42.092Z,25.00
2023-02-21T06:05:42.095Z,25.00
2023-02-21T06:06:42.082Z,25.00
2023-02-21T06:07:42.090Z,25.00
2023-02-21T06:08:42.087Z,27.07
2023-02-21T06:09:42.795Z,25.88
2023-02-21T06:10:42.058Z,27.96
2023-02-21T06:11:42.055Z,25.84
2023-02-21T06:13:42.065Z,27.25
2023-02-21T06:32:42.331Z,43.49
2023-02-21T06:37:42.324Z,69.64
2023-02-21T06:45:41.787Z,83.94
2023-02-21T07:17:42.367Z,230.02
2023-02-21T07:18:42.055Z,236.31
2023-02-21T07:19:42.270Z,238.30
2023-02-21T07:20:42.136Z,229.81
2023-02-21T07:21:42.179Z,208.86
2023-02-21T07:22:42.224Z,194.09
2023-02-21T07:23:42.317Z,192.43
2023-02-21T07:24:42.291Z,181.52
2023-02-21T07:25:42.351Z,186.25
2023-02-21T07:26:42.422Z,180.60
2023-02-21T07:27:42.478Z,181.96
2023-02-21T07:28:42.560Z,195.05
2023-02-21T07:29:42.591Z,191.30
2023-02-21T07:30:42.676Z,223.63
2023-02-21T07:31:42.857Z,203.66
2023-02-21T07:32:42.759Z,186.63
2023-02-21T07:33:42.877Z,200.15
2023-02-21T07:34:42.828Z,202.75
2023-02-21T07:48:43.340Z,205.34
2023-02-21T08:22:44.031Z,144.40
2023-02-21T08:23:44.040Z,145.49
2023-02-21T08:24:44.066Z,149.36
2023-02-21T08:25:44.048Z,156.86
2023-02-21T08:26:44.045Z,153.46
2023-02-21T08:27:44.050Z,150.86
2023-02-21T08:28:44.044Z,147.88
2023-02-21T08:29:44.033Z,151.96
2023-02-21T08:30:44.073Z,157.46
2023-02-21T08:31:44.038Z,159.96
2023-02-21T08:32:44.027Z,160.72
2023-02-21T08:33:44.344Z,155.62
2023-02-21T08:34:44.061Z,116.68
2023-02-21T08:35:44.015Z,113.29
2023-02-21T08:36:44.037Z,118.23
2023-02-21T08:37:44.040Z,125.05
2023-02-21T08:38:44.021Z,116.39
2023-02-21T08:39:44.094Z,111.09
2023-02-21T08:40:44.093Z,109.57
2023-02-21T08:41:44.130Z,106.46
2023-02-21T08:42:44.228Z,120.16
2023-02-21T08:43:44.379Z,128.57
2023-02-21T08:44:44.256Z,126.44
2023-02-21T08:45:44.250Z,128.86
2023-02-21T08:46:44.311Z,131.27
2023-02-21T08:47:44.364Z,138.60
2023-02-21T08:48:44.871Z,127.57
2023-02-21T08:49:44.463Z,130.56
2023-02-21T08:50:44.484Z,124.36
2023-02-21T08:51:44.541Z,118.11
2023-02-21T08:52:44.584Z,115.75
2023-02-21T08:53:44.608Z,118.61
2023-02-21T08:54:44.633Z,118.90
2023-02-21T08:55:44.691Z,116.47
2023-02-21T08:56:44.678Z,130.33
2023-02-21T08:57:44.693Z,113.52
2023-02-21T08:58:44.748Z,114.75
2023-02-21T08:59:44.692Z,134.08
2023-02-21T09:00:44.780Z,113.44
2023-02-21T09:01:44.807Z,115.86
2023-02-21T09:02:44.757Z,116.29
2023-02-21T09:03:44.878Z,116.84
2023-02-21T09:04:44.758Z,111.49
2023-02-21T09:05:44.761Z,104.37
2023-02-21T09:06:44.759Z,103.20
2023-02-21T09:07:44.807Z,101.22
2023-02-21T09:08:44.787Z,101.57
2023-02-21T09:09:44.865Z,105.32
2023-02-21T09:10:44.849Z,108.53
2023-02-21T09:11:44.808Z,105.09
2023-02-21T09:12:44.841Z,94.98
2023-02-21T09:13:44.861Z,93.08
2023-02-21T09:14:44.872Z,89.75
2023-02-21T09:15:44.879Z,102.51
2023-02-21T09:16:47.692Z,222.45
2023-02-21T09:17:44.948Z,162.20
2023-02-21T09:18:44.878Z,124.76
2023-02-21T09:19:44.872Z,116.89
2023-02-21T09:20:44.865Z,103.08
2023-02-21T09:21:44.878Z,89.37
2023-02-21T09:22:44.914Z,90.94
2023-02-21T09:23:44.856Z,80.35
2023-02-21T09:24:44.914Z,75.27
2023-02-21T09:25:44.827Z,77.27
2023-02-21T09:26:44.882Z,79.61
2023-02-21T09:27:44.821Z,73.60
2023-02-21T09:28:44.833Z,75.38
2023-02-21T09:29:46.699Z,67.96
2023-02-21T09:30:44.868Z,69.27
2023-02-21T09:31:44.791Z,75.08
2023-02-21T09:32:44.875Z,81.69
2023-02-21T09:33:44.798Z,88.17
2023-02-21T09:34:44.907Z,90.97
2023-02-21T09:35:44.841Z,76.17
2023-02-21T09:36:44.779Z,79.40
2023-02-21T09:37:44.755Z,79.09
2023-02-21T09:38:44.760Z,73.30
2023-02-21T09:39:44.772Z,57.80
2023-02-21T09:40:44.773Z,36.66
2023-02-21T09:41:44.791Z,29.84
2023-02-21T09:42:44.754Z,36.22
2023-02-21T09:43:44.756Z,29.36
2023-02-21T09:44:44.891Z,27.11
2023-02-21T09:45:44.950Z,31.66
2023-02-21T09:46:44.936Z,33.65
2023-02-21T09:47:44.954Z,27.87
2023-02-21T09:48:45.033Z,27.35
2023-02-21T09:49:45.379Z,25.00
2023-02-21T09:50:45.134Z,50.18
2023-02-21T09:51:45.185Z,53.58
2023-02-21T09:52:45.291Z,60.74
2023-02-21T09:53:45.357Z,55.92
2023-02-21T09:54:46.423Z,28.20
2023-02-21T09:55:45.508Z,7.01
2023-02-21T09:56:45.487Z,4.47
2023-02-21T09:57:45.527Z,25.00
2023-02-21T09:58:45.574Z,21.14
2023-02-21T09:59:45.628Z,33.29
2023-02-21T10:00:46.994Z,39.30
2023-02-21T10:01:45.630Z,47.30
2023-02-21T10:02:45.643Z,31.53
2023-02-21T10:03:45.598Z,25.84
2023-02-21T10:04:45.647Z,30.29
2023-02-21T10:05:45.621Z,25.46
2023-02-21T10:06:45.593Z,26.82
2023-02-21T10:07:45.617Z,39.56
2023-02-21T10:08:45.616Z,50.57
2023-02-21T10:09:45.933Z,61.76
2023-02-21T10:10:45.613Z,68.00
2023-02-21T10:11:45.670Z,61.44
2023-02-21T10:12:45.699Z,77.80
2023-02-21T10:13:45.747Z,80.66
2023-02-21T10:14:45.812Z,94.85
2023-02-21T10:15:46.457Z,102.88
2023-02-21T10:16:45.994Z,106.24
2023-02-21T10:17:46.041Z,112.46
2023-02-21T10:18:46.087Z,112.33
2023-02-21T10:19:46.117Z,112.08
2023-02-21T10:20:46.417Z,106.12
2023-02-21T10:21:46.204Z,106.10
2023-02-21T10:22:46.292Z,110.10
2023-02-21T10:23:46.287Z,109.74
2023-02-21T10:24:46.335Z,109.90
2023-02-21T10:25:46.405Z,119.81
2023-02-21T10:26:46.372Z,120.00
2023-02-21T10:27:46.421Z,111.81
2023-02-21T10:28:46.443Z,117.30
2023-02-21T10:29:46.455Z,117.91
2023-02-21T10:30:46.623Z,119.57
2023-02-21T10:31:46.601Z,124.47
2023-02-21T10:32:46.552Z,122.96
2023-02-21T10:33:46.539Z,123.77
2023-02-21T10:34:47.420Z,112.04
2023-02-21T10:35:46.908Z,125.49
2023-02-21T10:36:46.626Z,129.17
2023-02-21T10:37:46.645Z,129.71
2023-02-21T10:38:46.642Z,128.73
2023-02-21T10:39:46.712Z,120.55
2023-02-21T10:40:46.919Z,121.04
2023-02-21T10:41:46.770Z,111.39
2023-02-21T10:42:46.794Z,108.61
2023-02-21T10:43:46.813Z,113.68
2023-02-21T10:44:46.849Z,121.00
2023-02-21T10:45:47.147Z,129.70
2023-02-21T10:46:46.906Z,136.96
2023-02-21T10:47:46.969Z,141.39
2023-02-21T10:48:47.033Z,147.53
2023-02-21T10:49:47.018Z,151.51
2023-02-21T10:50:47.431Z,152.59
2023-02-21T10:51:47.113Z,154.09
2023-02-21T10:52:47.186Z,158.69
2023-02-21T10:53:47.193Z,146.10
2023-02-21T10:54:47.245Z,149.74
2023-02-21T10:55:47.400Z,147.75
2023-02-21T10:56:47.315Z,149.03
2023-02-21T10:57:47.319Z,155.51
2023-02-21T10:58:47.352Z,155.66
2023-02-21T10:59:50.296Z,150.27
2023-02-21T11:00:47.424Z,156.24
2023-02-21T11:01:47.514Z,156.07
2023-02-21T11:02:47.419Z,152.49
2023-02-21T11:03:47.374Z,148.27
2023-02-21T11:04:47.634Z,138.08
2023-02-21T11:05:47.327Z,142.60
2023-02-21T11:06:47.344Z,144.48
2023-02-21T11:07:47.335Z,138.32
2023-02-21T11:08:47.317Z,138.03
2023-02-21T11:09:47.313Z,132.67
2023-02-21T11:10:47.333Z,126.28
2023-02-21T11:11:47.347Z,122.26
2023-02-21T11:12:47.367Z,133.02
2023-02-21T11:13:47.305Z,125.46
2023-02-21T11:14:47.298Z,130.00
2023-02-21T11:15:47.306Z,128.49
2023-02-21T11:16:47.297Z,129.77
2023-02-21T11:17:47.274Z,119.52
2023-02-21T11:18:47.279Z,124.93
2023-02-21T11:19:47.280Z,118.33
2023-02-21T11:20:47.259Z,117.89
2023-02-21T11:21:47.400Z,115.46
2023-02-21T11:22:47.271Z,113.90
2023-02-21T11:23:47.220Z,111.00
2023-02-21T11:24:47.222Z,117.00
2023-02-21T11:25:47.234Z,111.02
2023-02-21T11:26:47.195Z,115.78
2023-02-21T11:27:47.216Z,115.19
2023-02-21T11:28:47.206Z,118.41
2023-02-21T11:29:47.189Z,107.00
2023-02-21T11:30:47.296Z,115.33
2023-02-21T11:31:47.267Z,109.95
2023-02-21T11:32:47.136Z,99.32
2023-02-21T11:33:47.132Z,104.33
2023-02-21T11:34:47.153Z,99.33
2023-02-21T11:35:47.143Z,104.41
2023-02-21T11:36:47.453Z,85.87
2023-02-21T11:37:47.147Z,94.53
2023-02-21T11:38:47.122Z,90.84
2023-02-21T11:39:47.117Z,103.78
2023-02-21T11:40:47.130Z,108.25
2023-02-21T11:41:47.461Z,112.43
2023-02-21T11:42:47.074Z,120.62
2023-02-21T11:43:48.085Z,121.78
2023-02-21T11:44:47.058Z,129.45
2023-02-21T11:45:47.126Z,125.65
2023-02-21T11:46:47.446Z,123.19
2023-02-21T11:47:47.076Z,130.44
2023-02-21T11:48:47.055Z,126.43
2023-02-21T11:49:49.839Z,135.09
2023-02-21T11:50:47.069Z,127.31
2023-02-21T11:51:47.038Z,135.23
2023-02-21T11:52:47.017Z,136.67
2023-02-21T11:53:47.074Z,134.63
2023-02-21T11:54:47.027Z,137.16
2023-02-21T11:55:46.992Z,135.07
2023-02-21T11:56:47.443Z,135.75
2023-02-21T11:57:47.004Z,137.48
2023-02-21T11:58:46.987Z,136.06
2023-02-21T11:59:46.939Z,128.40
2023-02-21T12:00:46.974Z,124.98
2023-02-21T12:01:47.029Z,129.28
2023-02-21T12:02:46.968Z,136.82
2023-02-21T12:03:46.918Z,126.89
2023-02-21T12:04:46.899Z,128.42
2023-02-21T12:05:46.984Z,135.69
2023-02-21T12:06:49.824Z,139.09
2023-02-21T12:07:46.893Z,139.39
2023-02-21T12:08:46.926Z,139.66
2023-02-21T12:09:46.923Z,137.90
2023-02-21T12:10:46.881Z,138.80
2023-02-21T12:11:46.945Z,138.11
2023-02-21T12:12:46.856Z,141.95
2023-02-21T12:13:46.908Z,138.44
2023-02-21T12:14:46.844Z,137.49
2023-02-21T12:15:46.869Z,138.74
2023-02-21T12:16:46.842Z,188.83
2023-02-21T12:17:46.835Z,187.57
2023-02-21T12:18:46.811Z,161.28
2023-02-21T12:19:46.825Z,156.14
2023-02-21T12:20:46.819Z,157.93
2023-02-21T12:21:46.869Z,159.97
2023-02-21T12:22:46.812Z,157.10
2023-02-21T12:23:46.800Z,158.21
2023-02-21T12:24:46.822Z,156.17
2023-02-21T12:25:46.754Z,155.00
2023-02-21T12:26:46.778Z,149.98
2023-02-21T12:27:46.952Z,159.69
2023-02-21T12:28:46.740Z,161.11
2023-02-21T12:29:46.753Z,158.22
2023-02-21T12:30:46.754Z,159.22
2023-02-21T12:31:46.873Z,148.29
2023-02-21T12:32:46.954Z,151.72
2023-02-21T12:33:46.715Z,157.37
2023-02-21T12:34:46.726Z,159.22
2023-02-21T12:35:46.756Z,164.75
2023-02-21T12:36:46.664Z,166.77
2023-02-21T12:37:46.977Z,169.41
2023-02-21T12:38:46.712Z,170.11
2023-02-21T12:39:46.656Z,175.25
2023-02-21T12:40:46.656Z,173.34
2023-02-21T12:41:46.673Z,174.99
2023-02-21T12:42:46.688Z,176.22
2023-02-21T12:43:46.643Z,176.82
2023-02-21T12:44:46.628Z,177.08
2023-02-21T12:45:46.632Z,173.29
2023-02-21T12:46:46.646Z,173.77
2023-02-21T12:47:46.594Z,174.14
2023-02-21T12:48:46.584Z,173.61
2023-02-21T12:49:46.577Z,172.60
2023-02-21T12:50:46.595Z,170.08
2023-02-21T12:51:46.552Z,169.38
2023-02-21T12:52:46.577Z,167.40
2023-02-21T12:53:46.545Z,168.48
2023-02-21T12:54:46.544Z,168.48
2023-02-21T12:55:46.565Z,167.23
2023-02-21T12:56:46.533Z,165.19
2023-02-21T12:57:46.552Z,168.26
2023-02-21T12:58:46.511Z,165.73
2023-02-21T12:59:46.550Z,164.16
2023-02-21T13:00:46.520Z,166.43
2023-02-21T13:01:46.553Z,165.15
2023-02-21T13:02:46.526Z,163.59
2023-02-21T13:03:46.491Z,163.82
2023-02-21T13:04:46.494Z,160.68
2023-02-21T13:05:46.494Z,163.12
2023-02-21T13:06:46.491Z,162.83
2023-02-21T13:07:46.548Z,163.30
2023-02-21T13:08:46.545Z,166.75
2023-02-21T13:09:46.540Z,181.66
2023-02-21T13:10:46.567Z,159.85
2023-02-21T13:11:46.627Z,156.09
2023-02-21T13:12:46.641Z,157.43
2023-02-21T13:13:46.683Z,162.36
2023-02-21T13:14:46.704Z,161.86
2023-02-21T13:15:46.727Z,165.79
2023-02-21T13:16:46.765Z,163.64
2023-02-21T13:17:46.778Z,165.42
2023-02-21T13:18:46.811Z,164.98
2023-02-21T13:19:46.858Z,165.07
2023-02-21T13:20:46.867Z,165.05
2023-02-21T13:21:46.926Z,165.94
2023-02-21T13:22:46.935Z,165.16
2023-02-21T13:23:46.956Z,163.30
2023-02-21T13:24:47.033Z,165.32
2023-02-21T13:25:47.040Z,165.61
2023-02-21T13:26:47.098Z,164.21
2023-02-21T13:27:47.104Z,163.47
2023-02-21T13:29:47.157Z,164.73
2023-02-21T13:30:47.381Z,163.67
2023-02-21T13:31:47.389Z,162.32
2023-02-21T13:32:47.279Z,162.73
2023-02-21T13:33:47.335Z,162.63
2023-02-21T13:34:47.373Z,161.54
2023-02-21T13:35:47.377Z,161.62
2023-02-21T13:36:47.450Z,159.58
2023-02-21T13:37:47.454Z,160.31
2023-02-21T13:38:47.505Z,159.71
2023-02-21T13:39:47.572Z,158.20
2023-02-21T13:40:47.660Z,158.93
2023-02-21T13:41:47.623Z,160.57
2023-02-21T13:42:47.699Z,156.56
2023-02-21T13:43:47.716Z,157.89
2023-02-21T13:44:47.753Z,157.94
2023-02-21T13:45:47.831Z,158.45
2023-02-21T13:46:47.890Z,157.38
2023-02-21T13:47:47.902Z,157.47
2023-02-21T13:48:47.946Z,154.83
2023-02-21T13:49:48.022Z,155.34
2023-02-21T13:50:48.021Z,156.56
2023-02-21T13:51:48.069Z,157.01
2023-02-21T13:52:48.141Z,156.52
2023-02-21T13:53:48.154Z,155.10
2023-02-21T13:54:48.212Z,154.30
2023-02-21T13:55:48.225Z,152.94
2023-02-21T13:56:48.282Z,154.65
2023-02-21T13:57:48.329Z,153.71
2023-02-21T13:58:48.368Z,153.78
2023-02-21T13:59:48.427Z,152.91
2023-02-21T14:00:48.465Z,154.50
2023-02-21T14:01:48.506Z,155.93
2023-02-21T14:02:48.554Z,154.11
2023-02-21T14:03:48.628Z,151.98
2023-02-21T14:04:48.657Z,153.14
2023-02-21T14:05:48.685Z,152.32
2023-02-21T14:06:48.742Z,151.15
2023-02-21T14:07:48.780Z,150.81
2023-02-21T14:08:48.823Z,153.03
2023-02-21T14:09:48.876Z,152.15
2023-02-21T14:10:48.940Z,152.79
2023-02-21T14:11:48.960Z,152.67
2023-02-21T14:12:49.043Z,150.22
2023-02-21T14:13:49.049Z,151.08
2023-02-21T14:14:49.168Z,150.80
2023-02-21T14:15:49.154Z,150.47
2023-02-21T14:16:49.246Z,148.20
2023-02-21T14:17:49.270Z,148.37
2023-02-21T14:18:49.283Z,151.27
2023-02-21T14:19:49.358Z,151.99
2023-02-21T14:20:49.409Z,152.33
2023-02-21T14:21:49.483Z,148.19
2023-02-21T14:22:49.491Z,148.75
2023-02-21T14:23:49.547Z,150.58
2023-02-21T14:24:49.604Z,147.31
2023-02-21T14:25:49.631Z,148.57
2023-02-21T14:26:49.720Z,147.22
2023-02-21T14:27:49.706Z,146.54
2023-02-21T14:28:49.745Z,149.18
2023-02-21T14:29:49.917Z,146.17
2023-02-21T14:30:49.886Z,149.04
2023-02-21T14:31:49.961Z,146.69
2023-02-21T14:32:49.999Z,146.17
2023-02-21T14:33:50.026Z,145.30
2023-02-21T14:34:50.074Z,146.60
2023-02-21T14:35:50.131Z,147.43
2023-02-21T14:36:50.189Z,148.36
2023-02-21T14:37:50.276Z,146.13
2023-02-21T14:38:50.328Z,147.41
2023-02-21T14:39:50.374Z,145.60
2023-02-21T14:40:50.393Z,146.93
2023-02-21T14:41:50.412Z,145.91
2023-02-21T14:42:50.481Z,142.72
2023-02-21T14:43:50.546Z,143.19
2023-02-21T14:44:50.591Z,144.01
2023-02-21T14:45:50.681Z,142.83
2023-02-21T14:46:50.715Z,145.36
2023-02-21T14:47:50.752Z,143.95
2023-02-21T14:48:50.824Z,144.14
2023-02-21T14:49:50.839Z,144.14
2023-02-21T14:50:50.901Z,142.85
2023-02-21T14:51:50.980Z,143.93
2023-02-21T14:52:51.013Z,143.72
2023-02-21T14:53:51.064Z,142.27
2023-02-21T14:54:51.141Z,142.23
2023-02-21T14:55:51.168Z,143.77
2023-02-21T14:56:51.194Z,140.51
2023-02-21T14:57:51.308Z,140.21
2023-02-21T14:58:51.330Z,140.18
2023-02-21T14:59:51.359Z,141.94
2023-02-21T15:00:51.442Z,139.85
2023-02-21T15:01:51.495Z,141.22
2023-02-21T15:03:51.645Z,141.15
2023-02-21T15:04:51.764Z,141.47
2023-02-21T15:05:51.728Z,141.32
2023-02-21T15:06:51.794Z,140.82
2023-02-21T15:07:51.866Z,140.17
2023-02-21T15:08:51.901Z,139.44
2023-02-21T15:09:51.946Z,139.16
2023-02-21T15:10:52.010Z,139.46
2023-02-21T15:11:52.082Z,138.39
2023-02-21T15:12:52.116Z,140.92
2023-02-21T15:13:52.173Z,139.57
2023-02-21T15:14:52.254Z,137.48
2023-02-21T15:15:52.326Z,136.82
2023-02-21T15:16:52.399Z,137.90
2023-02-21T15:17:52.436Z,137.99
2023-02-21T15:18:52.536Z,136.60
2023-02-21T15:19:52.542Z,138.08
2023-02-21T15:20:52.605Z,139.69
2023-02-21T15:21:52.675Z,138.49
2023-02-21T15:22:52.739Z,138.96
2023-02-21T15:23:52.832Z,137.36
2023-02-21T15:24:52.869Z,136.20
2023-02-21T15:25:52.918Z,137.47
2023-02-21T15:26:53.003Z,136.14
2023-02-21T15:27:53.048Z,134.94
2023-02-21T15:28:53.140Z,135.02
2023-02-21T15:29:53.175Z,136.41
2023-02-21T15:30:53.391Z,137.05
2023-02-21T15:31:53.381Z,137.25
2023-02-21T15:32:53.433Z,136.41
2023-02-21T15:33:53.439Z,133.61
2023-02-21T15:34:53.500Z,136.76
2023-02-21T15:35:53.552Z,135.45
2023-02-21T15:36:53.629Z,134.05
2023-02-21T15:37:53.699Z,135.99
2023-02-21T15:38:53.743Z,133.38
2023-02-21T15:39:55.537Z,136.25
2023-02-21T15:40:53.855Z,137.42
2023-02-21T15:41:53.927Z,135.27
2023-02-21T15:42:54.006Z,136.65
2023-02-21T15:43:54.081Z,134.90
2023-02-21T15:44:54.123Z,134.17
2023-02-21T15:45:54.224Z,135.25
2023-02-21T15:46:54.290Z,135.01
2023-02-21T15:47:54.343Z,135.81
2023-02-21T15:48:54.397Z,136.18
2023-02-21T15:49:54.420Z,134.34
2023-02-21T15:50:54.518Z,134.51
2023-02-21T15:51:54.604Z,133.13
2023-02-21T15:52:54.625Z,133.08
2023-02-21T15:53:54.677Z,136.11